sensor_id;sensor_type;location;lat;lon;timestamp;pressure;altitude;pressure_sealevel;temperature;humidity
79481;BME280;68944;48.262;14.208;2024-02-26T00:00:34;96916.28;;;1.27;100.00
79481;BME280;68944;48.262;14.208;2024-02-26T00:03:00;96907.84;;;1.18;100.00
79481;BME280;68944;48.262;14.208;2024-02-26T00:05:26;96908.66;;;1.32;100.00
79481;BME280;68944;48.262;14.208;2024-02-26T00:07:52;96904.63;;;1.23;100.00
79481;BME280;68944;48.262;14.208;2024-02-26T00:10:21;96904.25;;;0.90;100.00
79481;BME280;68944;48.262;14.208;2024-02-26T00:12:47;96906.69;;;0.92;100.00
79481;BME280;68944;48.262;14.208;2024-02-26T00:15:13;96900.69;;;0.98;100.00
79481;BME280;68944;48.262;14.208;2024-02-26T00:17:48;96900.63;;;1.20;100.00
79481;BME280;68944;48.262;14.208;2024-02-26T00:20:13;96888.31;;;1.14;100.00
79481;BME280;68944;48.262;14.208;2024-02-26T00:22:39;96887.88;;;1.04;100.00
79481;BME280;68944;48.262;14.208;2024-02-26T00:25:05;96898.53;;;1.02;100.00
79481;BME280;68944;48.262;14.208;2024-02-26T00:27:30;96889.09;;;1.08;100.00
79481;BME280;68944;48.262;14.208;2024-02-26T00:29:56;96890.59;;;1.24;100.00
79481;BME280;68944;48.262;14.208;2024-02-26T00:32:21;96882.13;;;1.15;100.00
79481;BME280;68944;48.262;14.208;2024-02-26T00:34:47;96884.22;;;0.98;100.00
79481;BME280;68944;48.262;14.208;2024-02-26T00:37:12;96891.03;;;0.92;100.00
79481;BME280;68944;48.262;14.208;2024-02-26T00:39:38;96881.88;;;1.10;100.00
79481;BME280;68944;48.262;14.208;2024-02-26T00:42:05;96881.19;;;1.30;100.00
79481;BME280;68944;48.262;14.208;2024-02-26T00:44:31;96864.94;;;1.34;100.00
79481;BME280;68944;48.262;14.208;2024-02-26T00:46:57;96871.81;;;1.00;100.00
79481;BME280;68944;48.262;14.208;2024-02-26T00:49:22;96872.59;;;0.94;100.00
79481;BME280;68944;48.262;14.208;2024-02-26T00:51:48;96871.19;;;0.98;100.00
79481;BME280;68944;48.262;14.208;2024-02-26T00:54:14;96862.69;;;1.24;100.00
79481;BME280;68944;48.262;14.208;2024-02-26T00:56:40;96858.09;;;1.33;100.00
79481;BME280;68944;48.262;14.208;2024-02-26T00:59:07;96857.56;;;1.02;100.00
79481;BME280;68944;48.262;14.208;2024-02-26T01:01:32;96852.53;;;0.59;100.00
79481;BME280;68944;48.262;14.208;2024-02-26T01:03:58;96859.38;;;0.60;100.00
79481;BME280;68944;48.262;14.208;2024-02-26T01:06:23;96865.50;;;0.81;100.00
79481;BME280;68944;48.262;14.208;2024-02-26T01:08:49;96856.72;;;0.95;100.00
79481;BME280;68944;48.262;14.208;2024-02-26T01:11:14;96849.84;;;0.74;100.00
79481;BME280;68944;48.262;14.208;2024-02-26T01:13:40;96840.78;;;0.34;100.00
79481;BME280;68944;48.262;14.208;2024-02-26T01:16:05;96847.63;;;0.42;100.00
79481;BME280;68944;48.262;14.208;2024-02-26T01:18:31;96841.44;;;0.43;100.00
79481;BME280;68944;48.262;14.208;2024-02-26T01:20:57;96846.88;;;0.48;100.00
79481;BME280;68944;48.262;14.208;2024-02-26T01:23:22;96840.22;;;0.39;100.00
79481;BME280;68944;48.262;14.208;2024-02-26T01:25:48;96835.22;;;0.44;100.00
79481;BME280;68944;48.262;14.208;2024-02-26T01:28:14;96831.06;;;0.56;100.00
79481;BME280;68944;48.262;14.208;2024-02-26T01:30:40;96834.72;;;0.62;100.00
79481;BME280;68944;48.262;14.208;2024-02-26T01:33:06;96823.28;;;0.63;100.00
79481;BME280;68944;48.262;14.208;2024-02-26T01:35:32;96815.69;;;0.62;100.00
79481;BME280;68944;48.262;14.208;2024-02-26T01:37:58;96823.63;;;0.53;100.00
79481;BME280;68944;48.262;14.208;2024-02-26T01:40:27;96825.88;;;0.56;100.00
79481;BME280;68944;48.262;14.208;2024-02-26T01:42:52;96826.47;;;0.59;100.00
79481;BME280;68944;48.262;14.208;2024-02-26T01:45:18;96811.94;;;0.42;100.00
79481;BME280;68944;48.262;14.208;2024-02-26T01:47:51;96831.06;;;-0.08;100.00
79481;BME280;68944;48.262;14.208;2024-02-26T01:50:18;96836.72;;;-0.26;100.00
79481;BME280;68944;48.262;14.208;2024-02-26T01:52:45;96841.78;;;-0.40;100.00
79481;BME280;68944;48.262;14.208;2024-02-26T01:55:13;96838.06;;;-0.52;100.00
79481;BME280;68944;48.262;14.208;2024-02-26T01:57:41;96836.69;;;-0.48;100.00
79481;BME280;68944;48.262;14.208;2024-02-26T02:00:08;96833.72;;;-0.45;100.00
79481;BME280;68944;48.262;14.208;2024-02-26T02:02:34;96826.19;;;-0.40;100.00
79481;BME280;68944;48.262;14.208;2024-02-26T02:05:00;96824.84;;;-0.51;100.00
79481;BME280;68944;48.262;14.208;2024-02-26T02:07:26;96819.84;;;-0.74;100.00
79481;BME280;68944;48.262;14.208;2024-02-26T02:09:53;96820.44;;;-1.24;100.00
79481;BME280;68944;48.262;14.208;2024-02-26T02:12:19;96828.16;;;-1.16;100.00
79481;BME280;68944;48.262;14.208;2024-02-26T02:14:44;96821.69;;;-1.05;100.00
79481;BME280;68944;48.262;14.208;2024-02-26T02:17:10;96823.91;;;-1.02;100.00
79481;BME280;68944;48.262;14.208;2024-02-26T02:19:35;96832.66;;;-0.88;100.00
79481;BME280;68944;48.262;14.208;2024-02-26T02:22:01;96831.47;;;-0.70;100.00
79481;BME280;68944;48.262;14.208;2024-02-26T02:24:26;96828.91;;;-0.85;100.00
79481;BME280;68944;48.262;14.208;2024-02-26T02:26:52;96828.94;;;-1.00;100.00
79481;BME280;68944;48.262;14.208;2024-02-26T02:29:18;96827.41;;;-0.95;100.00
79481;BME280;68944;48.262;14.208;2024-02-26T02:31:43;96826.44;;;-1.09;100.00
79481;BME280;68944;48.262;14.208;2024-02-26T02:34:09;96827.50;;;-1.03;100.00
79481;BME280;68944;48.262;14.208;2024-02-26T02:36:34;96827.72;;;-0.83;100.00
79481;BME280;68944;48.262;14.208;2024-02-26T02:39:00;96824.78;;;-0.79;100.00
79481;BME280;68944;48.262;14.208;2024-02-26T02:41:26;96820.06;;;-0.91;100.00
79481;BME280;68944;48.262;14.208;2024-02-26T02:43:53;96823.91;;;-0.87;100.00
79481;BME280;68944;48.262;14.208;2024-02-26T02:46:19;96829.34;;;-0.82;100.00
79481;BME280;68944;48.262;14.208;2024-02-26T02:48:44;96825.28;;;-0.69;100.00
79481;BME280;68944;48.262;14.208;2024-02-26T02:51:10;96822.53;;;-0.83;100.00
79481;BME280;68944;48.262;14.208;2024-02-26T02:53:36;96828.00;;;-0.93;100.00
79481;BME280;68944;48.262;14.208;2024-02-26T02:56:02;96829.66;;;-0.92;100.00
79481;BME280;68944;48.262;14.208;2024-02-26T02:58:28;96824.66;;;-0.71;100.00
79481;BME280;68944;48.262;14.208;2024-02-26T03:00:53;96814.50;;;-0.66;100.00
79481;BME280;68944;48.262;14.208;2024-02-26T03:03:20;96820.34;;;-0.64;100.00
79481;BME280;68944;48.262;14.208;2024-02-26T03:05:46;96812.53;;;-0.64;100.00
79481;BME280;68944;48.262;14.208;2024-02-26T03:08:11;96810.50;;;-0.47;100.00
79481;BME280;68944;48.262;14.208;2024-02-26T03:10:37;96805.91;;;-0.44;100.00
79481;BME280;68944;48.262;14.208;2024-02-26T03:13:02;96804.28;;;-0.46;100.00
79481;BME280;68944;48.262;14.208;2024-02-26T03:15:28;96804.97;;;-0.59;100.00
79481;BME280;68944;48.262;14.208;2024-02-26T03:17:53;96804.38;;;-0.98;100.00
79481;BME280;68944;48.262;14.208;2024-02-26T03:20:19;96801.22;;;-0.93;100.00
79481;BME280;68944;48.262;14.208;2024-02-26T03:22:45;96812.47;;;-1.08;100.00
79481;BME280;68944;48.262;14.208;2024-02-26T03:25:10;96816.16;;;-1.17;100.00
79481;BME280;68944;48.262;14.208;2024-02-26T03:27:36;96802.19;;;-1.16;100.00
79481;BME280;68944;48.262;14.208;2024-02-26T03:30:02;96813.34;;;-1.16;100.00
79481;BME280;68944;48.262;14.208;2024-02-26T03:32:29;96812.31;;;-1.21;100.00
79481;BME280;68944;48.262;14.208;2024-02-26T03:34:54;96810.88;;;-1.39;100.00
79481;BME280;68944;48.262;14.208;2024-02-26T03:37:21;96811.41;;;-1.59;100.00
79481;BME280;68944;48.262;14.208;2024-02-26T03:39:46;96820.38;;;-1.62;100.00
79481;BME280;68944;48.262;14.208;2024-02-26T03:42:12;96814.28;;;-1.39;100.00
79481;BME280;68944;48.262;14.208;2024-02-26T03:44:37;96811.13;;;-1.34;100.00
79481;BME280;68944;48.262;14.208;2024-02-26T03:47:03;96814.00;;;-1.74;100.00
79481;BME280;68944;48.262;14.208;2024-02-26T03:49:29;96825.28;;;-1.82;100.00
79481;BME280;68944;48.262;14.208;2024-02-26T03:51:55;96825.63;;;-1.85;100.00
79481;BME280;68944;48.262;14.208;2024-02-26T03:54:22;96829.94;;;-1.92;100.00
79481;BME280;68944;48.262;14.208;2024-02-26T03:56:47;96833.25;;;-1.84;100.00
79481;BME280;68944;48.262;14.208;2024-02-26T03:59:13;96831.97;;;-1.88;100.00
79481;BME280;68944;48.262;14.208;2024-02-26T04:01:38;96841.19;;;-2.00;100.00
79481;BME280;68944;48.262;14.208;2024-02-26T04:04:04;96844.72;;;-2.17;100.00
79481;BME280;68944;48.262;14.208;2024-02-26T04:06:29;96836.63;;;-1.98;100.00
79481;BME280;68944;48.262;14.208;2024-02-26T04:08:55;96838.06;;;-1.96;100.00
79481;BME280;68944;48.262;14.208;2024-02-26T04:11:20;96829.50;;;-1.81;100.00
79481;BME280;68944;48.262;14.208;2024-02-26T04:13:46;96836.75;;;-1.61;100.00
79481;BME280;68944;48.262;14.208;2024-02-26T04:16:15;96834.44;;;-1.56;100.00
79481;BME280;68944;48.262;14.208;2024-02-26T04:18:41;96836.75;;;-1.76;100.00
79481;BME280;68944;48.262;14.208;2024-02-26T04:21:08;96833.50;;;-1.78;100.00
79481;BME280;68944;48.262;14.208;2024-02-26T04:23:33;96832.22;;;-1.98;100.00
79481;BME280;68944;48.262;14.208;2024-02-26T04:25:59;96837.06;;;-1.95;100.00
79481;BME280;68944;48.262;14.208;2024-02-26T04:28:24;96842.41;;;-2.11;100.00
79481;BME280;68944;48.262;14.208;2024-02-26T04:30:55;96841.47;;;-1.95;100.00
79481;BME280;68944;48.262;14.208;2024-02-26T04:33:21;96843.16;;;-1.87;100.00
79481;BME280;68944;48.262;14.208;2024-02-26T04:35:46;96846.19;;;-1.99;100.00
79481;BME280;68944;48.262;14.208;2024-02-26T04:38:12;96850.47;;;-2.06;100.00
79481;BME280;68944;48.262;14.208;2024-02-26T04:40:37;96848.44;;;-1.96;100.00
79481;BME280;68944;48.262;14.208;2024-02-26T04:43:03;96847.94;;;-2.14;100.00
79481;BME280;68944;48.262;14.208;2024-02-26T04:45:29;96845.16;;;-2.36;100.00
79481;BME280;68944;48.262;14.208;2024-02-26T04:47:54;96855.59;;;-2.45;100.00
79481;BME280;68944;48.262;14.208;2024-02-26T04:50:20;96852.56;;;-2.25;100.00
79481;BME280;68944;48.262;14.208;2024-02-26T04:52:46;96858.25;;;-2.06;100.00
79481;BME280;68944;48.262;14.208;2024-02-26T04:55:11;96853.91;;;-1.90;100.00
79481;BME280;68944;48.262;14.208;2024-02-26T04:57:37;96861.84;;;-2.07;100.00
79481;BME280;68944;48.262;14.208;2024-02-26T05:00:04;96849.91;;;-2.40;100.00
79481;BME280;68944;48.262;14.208;2024-02-26T05:02:30;96855.63;;;-2.21;100.00
79481;BME280;68944;48.262;14.208;2024-02-26T05:04:57;96849.16;;;-2.02;100.00
79481;BME280;68944;48.262;14.208;2024-02-26T05:07:23;96854.97;;;-2.00;100.00
79481;BME280;68944;48.262;14.208;2024-02-26T05:09:48;96865.06;;;-2.05;100.00
79481;BME280;68944;48.262;14.208;2024-02-26T05:12:15;96866.78;;;-1.97;100.00
79481;BME280;68944;48.262;14.208;2024-02-26T05:14:40;96855.34;;;-1.88;100.00
79481;BME280;68944;48.262;14.208;2024-02-26T05:17:07;96858.69;;;-1.79;100.00
79481;BME280;68944;48.262;14.208;2024-02-26T05:19:32;96850.91;;;-1.79;100.00
79481;BME280;68944;48.262;14.208;2024-02-26T05:21:57;96848.41;;;-1.72;100.00
79481;BME280;68944;48.262;14.208;2024-02-26T05:24:23;96853.22;;;-1.84;100.00
79481;BME280;68944;48.262;14.208;2024-02-26T05:26:48;96859.44;;;-1.93;100.00
79481;BME280;68944;48.262;14.208;2024-02-26T05:29:14;96860.56;;;-2.11;100.00
79481;BME280;68944;48.262;14.208;2024-02-26T05:31:42;96864.03;;;-2.19;100.00
79481;BME280;68944;48.262;14.208;2024-02-26T05:34:07;96870.66;;;-2.17;100.00
79481;BME280;68944;48.262;14.208;2024-02-26T05:36:33;96880.81;;;-2.30;100.00
79481;BME280;68944;48.262;14.208;2024-02-26T05:38:59;96876.31;;;-2.13;100.00
79481;BME280;68944;48.262;14.208;2024-02-26T05:41:25;96878.53;;;-2.25;100.00
79481;BME280;68944;48.262;14.208;2024-02-26T05:43:52;96876.28;;;-2.36;100.00
79481;BME280;68944;48.262;14.208;2024-02-26T05:46:18;96879.25;;;-2.40;100.00
79481;BME280;68944;48.262;14.208;2024-02-26T05:48:54;96867.66;;;-2.05;100.00
79481;BME280;68944;48.262;14.208;2024-02-26T05:51:20;96868.69;;;-1.76;100.00
79481;BME280;68944;48.262;14.208;2024-02-26T05:53:45;96864.22;;;-1.82;100.00
79481;BME280;68944;48.262;14.208;2024-02-26T05:56:21;96871.00;;;-2.20;100.00
79481;BME280;68944;48.262;14.208;2024-02-26T05:58:47;96855.16;;;-2.25;100.00
79481;BME280;68944;48.262;14.208;2024-02-26T06:01:16;96861.94;;;-2.00;100.00
79481;BME280;68944;48.262;14.208;2024-02-26T06:03:42;96871.09;;;-1.89;100.00
79481;BME280;68944;48.262;14.208;2024-02-26T06:06:08;96870.22;;;-1.81;100.00
79481;BME280;68944;48.262;14.208;2024-02-26T06:08:33;96867.84;;;-1.68;100.00
79481;BME280;68944;48.262;14.208;2024-02-26T06:10:59;96864.84;;;-1.80;100.00
79481;BME280;68944;48.262;14.208;2024-02-26T06:13:24;96869.94;;;-1.87;100.00
79481;BME280;68944;48.262;14.208;2024-02-26T06:15:51;96872.47;;;-1.78;100.00
79481;BME280;68944;48.262;14.208;2024-02-26T06:18:17;96880.03;;;-1.53;100.00
79481;BME280;68944;48.262;14.208;2024-02-26T06:20:43;96881.63;;;-1.52;100.00
79481;BME280;68944;48.262;14.208;2024-02-26T06:23:08;96877.78;;;-1.41;100.00
79481;BME280;68944;48.262;14.208;2024-02-26T06:25:35;96880.22;;;-1.40;100.00
79481;BME280;68944;48.262;14.208;2024-02-26T06:28:00;96881.81;;;-1.39;100.00
79481;BME280;68944;48.262;14.208;2024-02-26T06:30:26;96881.44;;;-1.51;100.00
79481;BME280;68944;48.262;14.208;2024-02-26T06:32:51;96885.47;;;-1.63;100.00
79481;BME280;68944;48.262;14.208;2024-02-26T06:35:17;96896.06;;;-1.50;100.00
79481;BME280;68944;48.262;14.208;2024-02-26T06:37:42;96901.88;;;-1.47;100.00
79481;BME280;68944;48.262;14.208;2024-02-26T06:40:08;96897.94;;;-1.43;100.00
79481;BME280;68944;48.262;14.208;2024-02-26T06:42:34;96901.09;;;-1.33;100.00
79481;BME280;68944;48.262;14.208;2024-02-26T06:44:59;96906.59;;;-1.28;100.00
79481;BME280;68944;48.262;14.208;2024-02-26T06:47:25;96919.44;;;-1.65;100.00
79481;BME280;68944;48.262;14.208;2024-02-26T06:49:51;96920.94;;;-1.70;100.00
79481;BME280;68944;48.262;14.208;2024-02-26T06:52:17;96926.34;;;-1.80;100.00
79481;BME280;68944;48.262;14.208;2024-02-26T06:54:42;96933.03;;;-1.63;100.00
79481;BME280;68944;48.262;14.208;2024-02-26T06:57:08;96928.19;;;-2.13;100.00
79481;BME280;68944;48.262;14.208;2024-02-26T06:59:33;96926.47;;;-2.44;100.00
79481;BME280;68944;48.262;14.208;2024-02-26T07:01:59;96933.22;;;-2.67;100.00
79481;BME280;68944;48.262;14.208;2024-02-26T07:04:25;96933.75;;;-2.80;100.00
79481;BME280;68944;48.262;14.208;2024-02-26T07:06:51;96931.91;;;-2.71;100.00
79481;BME280;68944;48.262;14.208;2024-02-26T07:09:16;96929.94;;;-2.29;100.00
79481;BME280;68944;48.262;14.208;2024-02-26T07:11:42;96937.13;;;-2.15;100.00
79481;BME280;68944;48.262;14.208;2024-02-26T07:14:12;96942.22;;;-1.99;100.00
79481;BME280;68944;48.262;14.208;2024-02-26T07:16:37;96948.94;;;-2.36;100.00
79481;BME280;68944;48.262;14.208;2024-02-26T07:19:03;96932.19;;;-2.25;100.00
79481;BME280;68944;48.262;14.208;2024-02-26T07:21:30;96932.31;;;-2.19;100.00
79481;BME280;68944;48.262;14.208;2024-02-26T07:23:56;96939.41;;;-1.89;100.00
79481;BME280;68944;48.262;14.208;2024-02-26T07:26:22;96940.53;;;-1.44;100.00
79481;BME280;68944;48.262;14.208;2024-02-26T07:28:49;96943.22;;;-1.38;100.00
79481;BME280;68944;48.262;14.208;2024-02-26T07:31:17;96930.47;;;-1.47;100.00
79481;BME280;68944;48.262;14.208;2024-02-26T07:33:42;96935.16;;;-1.12;100.00
79481;BME280;68944;48.262;14.208;2024-02-26T07:36:08;96932.31;;;-1.02;100.00
79481;BME280;68944;48.262;14.208;2024-02-26T07:38:34;96921.19;;;-1.11;100.00
79481;BME280;68944;48.262;14.208;2024-02-26T07:41:02;96922.16;;;-0.82;100.00
79481;BME280;68944;48.262;14.208;2024-02-26T07:43:27;96923.28;;;-0.54;100.00
79481;BME280;68944;48.262;14.208;2024-02-26T07:45:53;96915.91;;;-0.36;100.00
79481;BME280;68944;48.262;14.208;2024-02-26T07:48:18;96914.69;;;-0.55;100.00
79481;BME280;68944;48.262;14.208;2024-02-26T07:50:44;96917.25;;;-0.40;100.00
79481;BME280;68944;48.262;14.208;2024-02-26T07:53:10;96911.81;;;-0.23;100.00
79481;BME280;68944;48.262;14.208;2024-02-26T07:55:35;96915.53;;;-0.10;100.00
79481;BME280;68944;48.262;14.208;2024-02-26T07:58:01;96917.50;;;-0.35;100.00
79481;BME280;68944;48.262;14.208;2024-02-26T08:00:26;96923.91;;;-0.52;100.00
79481;BME280;68944;48.262;14.208;2024-02-26T08:02:52;96933.00;;;-0.26;100.00
79481;BME280;68944;48.262;14.208;2024-02-26T08:05:17;96929.13;;;0.07;100.00
79481;BME280;68944;48.262;14.208;2024-02-26T08:07:43;96931.34;;;0.10;100.00
79481;BME280;68944;48.262;14.208;2024-02-26T08:10:09;96924.09;;;-0.17;100.00
79481;BME280;68944;48.262;14.208;2024-02-26T08:12:35;96934.38;;;-0.30;100.00
79481;BME280;68944;48.262;14.208;2024-02-26T08:15:00;96937.47;;;-0.20;100.00
79481;BME280;68944;48.262;14.208;2024-02-26T08:17:26;96937.13;;;0.05;100.00
79481;BME280;68944;48.262;14.208;2024-02-26T08:19:53;96935.00;;;-0.06;100.00
79481;BME280;68944;48.262;14.208;2024-02-26T08:22:18;96948.28;;;-0.01;100.00
79481;BME280;68944;48.262;14.208;2024-02-26T08:24:44;96938.38;;;-0.65;100.00
79481;BME280;68944;48.262;14.208;2024-02-26T08:27:10;96947.34;;;-0.52;100.00
79481;BME280;68944;48.262;14.208;2024-02-26T08:29:35;96956.56;;;-0.50;100.00
79481;BME280;68944;48.262;14.208;2024-02-26T08:32:01;96953.94;;;-0.35;100.00
79481;BME280;68944;48.262;14.208;2024-02-26T08:34:27;96946.75;;;-0.32;100.00
79481;BME280;68944;48.262;14.208;2024-02-26T08:36:52;96958.59;;;0.29;100.00
79481;BME280;68944;48.262;14.208;2024-02-26T08:39:18;96956.34;;;0.48;100.00
79481;BME280;68944;48.262;14.208;2024-02-26T08:41:44;96947.59;;;0.63;100.00
79481;BME280;68944;48.262;14.208;2024-02-26T08:44:11;96936.16;;;0.86;100.00
79481;BME280;68944;48.262;14.208;2024-02-26T08:46:36;96939.28;;;1.10;100.00
79481;BME280;68944;48.262;14.208;2024-02-26T08:49:03;96935.97;;;1.30;100.00
79481;BME280;68944;48.262;14.208;2024-02-26T08:51:28;96930.97;;;1.35;100.00
79481;BME280;68944;48.262;14.208;2024-02-26T08:53:54;96939.00;;;1.33;100.00
79481;BME280;68944;48.262;14.208;2024-02-26T08:56:20;96934.88;;;1.53;100.00
79481;BME280;68944;48.262;14.208;2024-02-26T08:58:47;96932.06;;;1.54;100.00
79481;BME280;68944;48.262;14.208;2024-02-26T09:01:14;96932.88;;;1.55;100.00
79481;BME280;68944;48.262;14.208;2024-02-26T09:03:40;96937.81;;;2.06;100.00
79481;BME280;68944;48.262;14.208;2024-02-26T09:06:06;96936.19;;;2.25;100.00
79481;BME280;68944;48.262;14.208;2024-02-26T09:08:32;96940.25;;;2.48;100.00
79481;BME280;68944;48.262;14.208;2024-02-26T09:10:58;96937.00;;;2.87;100.00
79481;BME280;68944;48.262;14.208;2024-02-26T09:13:24;96932.97;;;2.84;100.00
79481;BME280;68944;48.262;14.208;2024-02-26T09:15:49;96943.00;;;3.07;100.00
79481;BME280;68944;48.262;14.208;2024-02-26T09:18:15;96941.81;;;2.76;100.00
79481;BME280;68944;48.262;14.208;2024-02-26T09:20:41;96955.09;;;2.81;100.00
79481;BME280;68944;48.262;14.208;2024-02-26T09:23:06;96945.06;;;2.92;100.00
79481;BME280;68944;48.262;14.208;2024-02-26T09:25:32;96944.06;;;2.79;100.00
79481;BME280;68944;48.262;14.208;2024-02-26T09:27:59;96955.94;;;2.75;100.00
79481;BME280;68944;48.262;14.208;2024-02-26T09:30:24;96950.44;;;3.11;100.00
79481;BME280;68944;48.262;14.208;2024-02-26T09:32:50;96944.50;;;3.43;100.00
79481;BME280;68944;48.262;14.208;2024-02-26T09:35:16;96939.41;;;2.81;100.00
79481;BME280;68944;48.262;14.208;2024-02-26T09:37:41;96955.53;;;2.37;100.00
79481;BME280;68944;48.262;14.208;2024-02-26T09:40:09;96946.59;;;3.06;100.00
79481;BME280;68944;48.262;14.208;2024-02-26T09:42:37;96940.47;;;3.40;100.00
79481;BME280;68944;48.262;14.208;2024-02-26T09:45:06;96933.09;;;3.69;100.00
79481;BME280;68944;48.262;14.208;2024-02-26T09:47:35;96935.53;;;3.71;100.00
79481;BME280;68944;48.262;14.208;2024-02-26T09:50:01;96921.31;;;3.85;100.00
79481;BME280;68944;48.262;14.208;2024-02-26T09:52:30;96925.97;;;3.83;100.00
79481;BME280;68944;48.262;14.208;2024-02-26T09:54:58;96919.88;;;4.22;100.00
79481;BME280;68944;48.262;14.208;2024-02-26T09:57:25;96925.63;;;4.38;100.00
79481;BME280;68944;48.262;14.208;2024-02-26T09:59:53;96929.59;;;4.47;100.00
79481;BME280;68944;48.262;14.208;2024-02-26T10:02:24;96932.34;;;4.78;100.00
79481;BME280;68944;48.262;14.208;2024-02-26T10:04:50;96935.28;;;4.88;100.00
79481;BME280;68944;48.262;14.208;2024-02-26T10:07:18;96928.41;;;4.87;100.00
79481;BME280;68944;48.262;14.208;2024-02-26T10:09:44;96937.38;;;4.80;100.00
79481;BME280;68944;48.262;14.208;2024-02-26T10:12:10;96930.56;;;4.97;100.00
79481;BME280;68944;48.262;14.208;2024-02-26T10:14:40;96929.53;;;4.98;100.00
79481;BME280;68944;48.262;14.208;2024-02-26T10:17:07;96930.34;;;5.37;100.00
79481;BME280;68944;48.262;14.208;2024-02-26T10:19:34;96917.06;;;5.31;100.00
79481;BME280;68944;48.262;14.208;2024-02-26T10:22:01;96908.88;;;5.58;100.00
79481;BME280;68944;48.262;14.208;2024-02-26T10:24:28;96916.97;;;5.88;100.00
79481;BME280;68944;48.262;14.208;2024-02-26T10:26:55;96907.16;;;5.64;100.00
79481;BME280;68944;48.262;14.208;2024-02-26T10:29:23;96909.41;;;5.79;100.00
79481;BME280;68944;48.262;14.208;2024-02-26T10:31:50;96915.81;;;5.84;100.00
79481;BME280;68944;48.262;14.208;2024-02-26T10:34:16;96914.38;;;6.00;100.00
79481;BME280;68944;48.262;14.208;2024-02-26T10:36:42;96916.03;;;6.13;100.00
79481;BME280;68944;48.262;14.208;2024-02-26T10:39:11;96910.31;;;6.16;100.00
79481;BME280;68944;48.262;14.208;2024-02-26T10:41:37;96907.13;;;6.38;100.00
79481;BME280;68944;48.262;14.208;2024-02-26T10:44:04;96908.63;;;6.34;100.00
79481;BME280;68944;48.262;14.208;2024-02-26T10:46:29;96908.28;;;6.42;100.00
79481;BME280;68944;48.262;14.208;2024-02-26T10:48:55;96898.59;;;6.55;100.00
79481;BME280;68944;48.262;14.208;2024-02-26T10:51:29;96900.19;;;6.56;100.00
79481;BME280;68944;48.262;14.208;2024-02-26T10:53:57;96903.28;;;6.65;100.00
79481;BME280;68944;48.262;14.208;2024-02-26T10:56:34;96894.19;;;7.21;100.00
79481;BME280;68944;48.262;14.208;2024-02-26T10:59:00;96884.41;;;7.21;100.00
79481;BME280;68944;48.262;14.208;2024-02-26T11:01:27;96889.78;;;7.26;100.00
79481;BME280;68944;48.262;14.208;2024-02-26T11:03:57;96893.81;;;7.29;100.00
79481;BME280;68944;48.262;14.208;2024-02-26T11:06:25;96888.56;;;7.05;100.00
79481;BME280;68944;48.262;14.208;2024-02-26T11:08:51;96902.34;;;6.59;100.00
79481;BME280;68944;48.262;14.208;2024-02-26T11:11:18;96905.22;;;6.57;100.00
79481;BME280;68944;48.262;14.208;2024-02-26T11:13:46;96919.75;;;6.48;100.00
79481;BME280;68944;48.262;14.208;2024-02-26T11:16:21;96915.72;;;6.33;100.00
79481;BME280;68944;48.262;14.208;2024-02-26T11:18:48;96912.88;;;6.71;100.00
79481;BME280;68944;48.262;14.208;2024-02-26T11:21:17;96907.75;;;6.88;100.00
79481;BME280;68944;48.262;14.208;2024-02-26T11:23:53;96901.53;;;6.58;100.00
79481;BME280;68944;48.262;14.208;2024-02-26T11:26:20;96904.66;;;6.00;100.00
79481;BME280;68944;48.262;14.208;2024-02-26T11:28:47;96900.81;;;6.15;100.00
79481;BME280;68944;48.262;14.208;2024-02-26T11:31:14;96899.50;;;6.48;100.00
79481;BME280;68944;48.262;14.208;2024-02-26T11:33:40;96898.34;;;6.92;100.00
79481;BME280;68944;48.262;14.208;2024-02-26T11:36:10;96886.84;;;7.23;100.00
79481;BME280;68944;48.262;14.208;2024-02-26T11:38:37;96895.31;;;7.13;100.00
79481;BME280;68944;48.262;14.208;2024-02-26T11:41:04;96892.00;;;7.17;100.00
79481;BME280;68944;48.262;14.208;2024-02-26T11:43:52;96893.19;;;7.51;100.00
79481;BME280;68944;48.262;14.208;2024-02-26T11:48:54;96888.63;;;7.93;100.00
79481;BME280;68944;48.262;14.208;2024-02-26T11:51:25;96881.28;;;7.95;100.00
79481;BME280;68944;48.262;14.208;2024-02-26T11:53:51;96874.25;;;8.35;100.00
79481;BME280;68944;48.262;14.208;2024-02-26T11:58:42;96872.06;;;7.80;100.00
79481;BME280;68944;48.262;14.208;2024-02-26T12:04:06;96865.25;;;7.67;100.00
79481;BME280;68944;48.262;14.208;2024-02-26T12:06:41;96868.47;;;7.69;100.00
79481;BME280;68944;48.262;14.208;2024-02-26T12:09:07;96871.34;;;7.85;100.00
79481;BME280;68944;48.262;14.208;2024-02-26T12:11:37;96863.44;;;7.85;100.00
79481;BME280;68944;48.262;14.208;2024-02-26T12:14:03;96872.81;;;7.93;100.00
79481;BME280;68944;48.262;14.208;2024-02-26T12:16:39;96866.88;;;8.03;100.00
79481;BME280;68944;48.262;14.208;2024-02-26T12:19:06;96865.47;;;8.12;100.00
79481;BME280;68944;48.262;14.208;2024-02-26T12:21:37;96860.28;;;8.17;100.00
79481;BME280;68944;48.262;14.208;2024-02-26T12:24:13;96861.13;;;8.23;100.00
79481;BME280;68944;48.262;14.208;2024-02-26T12:26:39;96865.28;;;8.19;100.00
79481;BME280;68944;48.262;14.208;2024-02-26T12:29:05;96862.50;;;8.43;100.00
79481;BME280;68944;48.262;14.208;2024-02-26T12:31:34;96867.78;;;8.43;100.00
79481;BME280;68944;48.262;14.208;2024-02-26T12:34:02;96868.88;;;8.47;100.00
79481;BME280;68944;48.262;14.208;2024-02-26T12:36:28;96860.72;;;8.49;100.00
79481;BME280;68944;48.262;14.208;2024-02-26T12:38:54;96862.56;;;8.48;100.00
79481;BME280;68944;48.262;14.208;2024-02-26T12:41:20;96862.91;;;8.69;100.00
79481;BME280;68944;48.262;14.208;2024-02-26T12:43:46;96873.88;;;8.83;100.00
79481;BME280;68944;48.262;14.208;2024-02-26T12:46:12;96872.38;;;8.87;100.00
79481;BME280;68944;48.262;14.208;2024-02-26T12:48:39;96874.00;;;9.11;100.00